LJMB METAR and TAF | Updated Today

LJMB METAR

Maribor Airport

Observation time: 6 min. ago

LJMB 292130Z AUTO 36004KT 9999 FEW008/// OVC015/// 10/10 Q1006

Need help? Read our tutorial on how to read METARs or read the parsed version below.

Maribor Airport (LJMB) METAR

  • Weather conditions on Thu, 29 Sep 2022 21:30:00 +0000 (6 min. ago):
  • Present conditions: Dry
  • Clouds: A few at 244 meters; overcast sky at 457 meters
  • Visibility: Greater than 10 km
  • Wind: 360 degrees at 4 knots
  • Temperature: 10 celsius
  • Dew point: 10 celsius
  • Pressure: 1006 millibars
  • Remarks: None


Useful to know...

LJMB TAF

Maribor Airport

TAF LJMB 291700Z 2918/3018 03005KT 9999 FEW015 OVC033 TEMPO 2918/3018 5000 SHRA BKN010 BKN025TCU OVC030
Observation time: 4:36 hr. ago
Need help? Read our tutorial on how to read TAFs or read the parsed version below.

Parsed version of TAF for Maribor Airport (LJMB)

  • From 29 September at 18:00 UTC, to day 30 of the month at 18:00 UTC
  • Clouds: A few at 457 meters; overcast sky at 1006 meters
  • Visibility: Greater than 10 km
  • Wind: 30 degrees at 5
  • Expected to arise temporarily, from 29 September at 18:00 UTC, to day 30 of the month at 18:00 UTC
  • Clouds: Broken sky at 305 meters; broken sky at 762 meters, towering cumulus; overcast sky at 914 meters
  • Visibility: 5000 meters
  • Other: Showers of rain